createdAt,value
2023-04-12T00:01:45.526Z,5.17
2023-04-12T00:04:55.567Z,5.12
2023-04-12T00:08:01.129Z,5.07
2023-04-12T00:11:03.962Z,5.05
2023-04-12T00:14:06.585Z,5.03
2023-04-12T00:17:09.254Z,4.99
2023-04-12T00:20:12.878Z,4.93
2023-04-12T00:23:17.353Z,4.88
2023-04-12T00:26:21.901Z,4.88
2023-04-12T00:29:24.463Z,4.86
2023-04-12T00:32:27.980Z,4.86
2023-04-12T00:35:30.700Z,4.86
2023-04-12T00:38:33.404Z,4.81
2023-04-12T00:41:39.045Z,4.74
2023-04-12T00:44:41.607Z,4.74
2023-04-12T00:47:45.432Z,4.72
2023-04-12T00:50:48.029Z,4.68
2023-04-12T00:53:51.072Z,4.65
2023-04-12T00:56:53.773Z,4.64
2023-04-12T00:59:56.291Z,4.66
2023-04-12T01:03:02.537Z,4.67
2023-04-12T01:06:41.862Z,4.60
2023-04-12T01:09:59.471Z,4.58
2023-04-12T01:13:31.067Z,4.60
2023-04-12T01:16:44.353Z,4.60
2023-04-12T01:20:01.900Z,4.60
2023-04-12T01:23:45.155Z,4.61
2023-04-12T01:26:49.038Z,4.61
2023-04-12T01:29:51.864Z,4.62
2023-04-12T01:32:56.785Z,4.64
2023-04-12T01:36:04.537Z,4.63
2023-04-12T01:39:08.592Z,4.61
2023-04-12T01:42:11.190Z,4.59
2023-04-12T01:45:13.892Z,4.58
2023-04-12T01:48:17.989Z,4.56
2023-04-12T01:51:34.984Z,4.54
2023-04-12T01:54:42.603Z,4.53
2023-04-12T01:57:46.033Z,4.56
2023-04-12T02:00:51.240Z,4.55
2023-04-12T02:03:56.074Z,4.57
2023-04-12T02:06:59.010Z,4.56
2023-04-12T02:10:01.895Z,4.53
2023-04-12T02:13:04.627Z,4.54
2023-04-12T02:16:11.053Z,4.52
2023-04-12T02:19:13.779Z,4.50
2023-04-12T02:22:17.298Z,4.46
2023-04-12T02:25:19.917Z,4.41
2023-04-12T02:28:23.261Z,4.40
2023-04-12T02:31:25.833Z,4.38
2023-04-12T02:34:31.444Z,4.34
2023-04-12T02:37:34.023Z,4.26
2023-04-12T02:40:42.968Z,4.21
2023-04-12T02:43:46.106Z,4.13
2023-04-12T02:46:48.958Z,4.13
2023-04-12T02:49:51.525Z,4.09
2023-04-12T02:52:54.565Z,4.09
2023-04-12T02:55:57.434Z,4.10
2023-04-12T02:59:00.010Z,4.13
2023-04-12T03:02:02.616Z,4.19
2023-04-12T03:05:07.597Z,4.21
2023-04-12T03:08:10.144Z,4.22
2023-04-12T03:11:12.730Z,4.21
2023-04-12T03:14:17.590Z,4.23
2023-04-12T03:17:20.295Z,4.22
2023-04-12T03:20:25.294Z,4.23
2023-04-12T03:23:27.865Z,4.24
2023-04-12T03:26:30.810Z,4.24
2023-04-12T03:29:33.366Z,4.24
2023-04-12T03:32:36.184Z,4.27
2023-04-12T03:35:38.882Z,4.28
2023-04-12T03:38:41.509Z,4.28
2023-04-12T03:41:44.124Z,4.26
2023-04-12T03:44:48.624Z,4.26
2023-04-12T03:47:51.332Z,4.04
2023-04-12T03:50:54.724Z,4.27
2023-04-12T03:53:57.515Z,4.28
2023-04-12T03:57:00.378Z,4.32
2023-04-12T04:00:04.165Z,4.38
2023-04-12T04:03:06.870Z,4.42
2023-04-12T04:06:09.846Z,4.44
2023-04-12T04:09:12.476Z,4.44
2023-04-12T04:12:15.069Z,4.46
2023-04-12T04:15:17.637Z,4.50
2023-04-12T04:18:20.355Z,4.50
2023-04-12T04:21:23.861Z,4.48
2023-04-12T04:24:26.589Z,4.49
2023-04-12T04:27:30.664Z,4.51
2023-04-12T04:30:39.010Z,4.49
2023-04-12T04:33:41.880Z,4.51
2023-04-12T04:36:44.542Z,4.56
2023-04-12T04:39:47.204Z,4.60
2023-04-12T04:42:54.883Z,4.60
2023-04-12T04:45:58.213Z,4.65
2023-04-12T04:49:01.414Z,4.68
2023-04-12T04:52:04.643Z,4.72
2023-04-12T04:55:09.807Z,4.77
2023-04-12T04:58:14.991Z,4.84
2023-04-12T05:01:17.680Z,4.90
2023-04-12T05:04:20.298Z,4.93
2023-04-12T05:07:23.753Z,4.97
2023-04-12T05:10:26.294Z,5.01
2023-04-12T05:13:29.226Z,5.06
2023-04-12T05:16:31.871Z,5.12
2023-04-12T05:22:43.237Z,5.18
2023-04-12T05:25:48.370Z,5.21
2023-04-12T05:28:51.175Z,5.26
2023-04-12T05:31:53.806Z,5.30
2023-04-12T05:34:56.769Z,5.34
2023-04-12T05:37:59.356Z,5.39
2023-04-12T05:41:04.893Z,5.40
2023-04-12T05:44:07.570Z,5.44
2023-04-12T05:47:10.134Z,5.49
2023-04-12T05:50:12.726Z,5.54
2023-04-12T05:53:15.712Z,5.59
2023-04-12T05:56:18.538Z,5.61
2023-04-12T05:59:21.175Z,5.63
2023-04-12T06:02:26.154Z,5.63
2023-04-12T06:05:29.422Z,5.60
2023-04-12T06:08:32.989Z,5.56
2023-04-12T06:11:39.183Z,5.53
2023-04-12T06:14:41.859Z,5.51
2023-04-12T06:17:44.539Z,5.54
2023-04-12T06:20:47.224Z,5.63
2023-04-12T06:23:49.820Z,5.69
2023-04-12T06:26:52.355Z,5.71
2023-04-12T06:29:55.023Z,5.73
2023-04-12T06:32:58.029Z,5.74
2023-04-12T06:36:01.166Z,5.77
2023-04-12T06:39:04.246Z,5.85
2023-04-12T06:42:07.000Z,5.92
2023-04-12T06:45:10.099Z,5.98
2023-04-12T06:48:13.856Z,6.02
2023-04-12T06:51:18.991Z,6.06
2023-04-12T06:54:21.622Z,6.11
2023-04-12T06:57:24.422Z,6.13
2023-04-12T07:00:27.376Z,6.15
2023-04-12T07:03:33.272Z,6.13
2023-04-12T07:06:36.170Z,6.11
2023-04-12T07:09:38.850Z,6.10
2023-04-12T07:12:42.304Z,6.15
2023-04-12T07:15:44.793Z,6.20
2023-04-12T07:19:01.393Z,6.22
2023-04-12T07:22:04.046Z,6.21
2023-04-12T07:25:10.363Z,6.18
2023-04-12T07:28:13.238Z,6.18
2023-04-12T07:31:16.009Z,6.18
2023-04-12T07:34:18.977Z,6.18
2023-04-12T07:37:21.625Z,6.19
2023-04-12T07:40:24.882Z,6.20
2023-04-12T07:43:27.479Z,6.31
2023-04-12T07:46:30.082Z,6.35
2023-04-12T07:49:32.651Z,6.37
2023-04-12T07:52:35.422Z,6.41
2023-04-12T07:55:37.955Z,6.45
2023-04-12T07:58:59.254Z,6.50
2023-04-12T08:02:22.947Z,6.54
2023-04-12T08:05:26.141Z,6.59
2023-04-12T08:08:40.284Z,6.61
2023-04-12T08:11:42.880Z,6.65
2023-04-12T08:14:45.933Z,6.66
2023-04-12T08:17:48.641Z,6.65
2023-04-12T08:20:52.189Z,6.70
2023-04-12T08:23:54.874Z,6.73
2023-04-12T08:26:57.801Z,6.78
2023-04-12T08:30:00.656Z,6.84
2023-04-12T08:33:03.344Z,6.94
2023-04-12T08:36:06.571Z,6.97
2023-04-12T08:39:09.572Z,6.98
2023-04-12T08:42:15.145Z,6.99
2023-04-12T08:45:17.833Z,7.01
2023-04-12T08:48:22.729Z,7.05
2023-04-12T08:51:25.554Z,7.09
2023-04-12T08:54:29.205Z,7.15
2023-04-12T08:57:35.778Z,7.20
2023-04-12T09:00:38.665Z,7.27
2023-04-12T09:03:43.297Z,7.31
2023-04-12T09:06:46.809Z,7.30
2023-04-12T09:09:51.743Z,7.34
2023-04-12T09:12:54.675Z,7.38
2023-04-12T09:15:57.403Z,7.50
2023-04-12T09:19:02.598Z,7.56
2023-04-12T09:22:05.235Z,7.59
2023-04-12T09:25:08.091Z,7.58
2023-04-12T09:28:22.782Z,7.57
2023-04-12T09:31:26.783Z,7.63
2023-04-12T09:34:31.123Z,7.69
2023-04-12T09:37:33.772Z,7.74
2023-04-12T09:40:37.252Z,7.78
2023-04-12T09:43:39.977Z,7.83
2023-04-12T09:46:55.995Z,7.91
2023-04-12T09:49:59.042Z,7.97
2023-04-12T09:53:03.442Z,8.03
2023-04-12T09:56:08.529Z,8.06
2023-04-12T09:59:13.546Z,8.08
2023-04-12T10:02:19.109Z,8.10
2023-04-12T10:05:26.236Z,8.15
2023-04-12T10:08:31.055Z,8.21
2023-04-12T10:11:34.505Z,8.32
2023-04-12T10:14:38.338Z,8.41
2023-04-12T10:17:45.861Z,8.51
2023-04-12T10:20:48.812Z,8.55
2023-04-12T10:23:51.471Z,8.60
2023-04-12T10:27:02.998Z,8.67
2023-04-12T10:30:28.959Z,8.70
2023-04-12T10:33:32.121Z,8.71
2023-04-12T10:36:58.411Z,8.74
2023-04-12T10:40:03.512Z,8.75
2023-04-12T10:43:28.976Z,8.78
2023-04-12T10:46:38.353Z,8.85
2023-04-12T10:50:20.054Z,8.91
2023-04-12T10:53:25.220Z,8.96
2023-04-12T10:56:32.696Z,9.02
2023-04-12T10:59:54.362Z,9.03
2023-04-12T11:03:08.849Z,9.09
2023-04-12T11:06:24.098Z,9.18
2023-04-12T11:09:45.203Z,9.24
2023-04-12T11:12:54.760Z,9.27
2023-04-12T11:16:02.473Z,9.38
2023-04-12T11:19:07.743Z,9.47
2023-04-12T11:22:12.669Z,9.57
2023-04-12T11:25:18.147Z,9.67
2023-04-12T11:28:28.722Z,9.75
2023-04-12T11:31:33.359Z,9.84
2023-04-12T11:34:37.147Z,9.97
2023-04-12T11:37:39.904Z,10.05
2023-04-12T11:40:42.733Z,10.14
2023-04-12T11:43:46.074Z,10.21
2023-04-12T11:46:49.576Z,10.24
2023-04-12T11:49:53.780Z,10.26
2023-04-12T11:53:09.757Z,10.34
2023-04-12T11:56:12.621Z,10.41
2023-04-12T11:59:15.409Z,10.51
2023-04-12T12:02:23.272Z,10.60
2023-04-12T12:05:28.068Z,10.73
2023-04-12T12:08:31.420Z,10.89
2023-04-12T12:11:34.170Z,10.97
2023-04-12T12:14:37.021Z,11.09
2023-04-12T12:17:39.704Z,11.19
2023-04-12T12:20:51.307Z,11.26
2023-04-12T12:23:56.694Z,11.28
2023-04-12T12:27:03.888Z,11.41
2023-04-12T12:30:08.108Z,11.50
2023-04-12T12:33:10.970Z,11.64
2023-04-12T12:36:16.601Z,11.75
2023-04-12T12:39:19.700Z,11.83
2023-04-12T12:42:22.323Z,11.95
2023-04-12T12:45:27.663Z,12.09
2023-04-12T12:48:30.466Z,12.25
2023-04-12T12:51:33.282Z,12.38
2023-04-12T12:54:41.664Z,12.52
2023-04-12T12:57:51.898Z,12.67
2023-04-12T13:01:04.962Z,12.77
2023-04-12T13:04:07.995Z,12.84
2023-04-12T13:07:10.676Z,12.91
2023-04-12T13:10:14.059Z,13.03
2023-04-12T13:13:16.976Z,13.15
2023-04-12T13:16:19.586Z,13.36
2023-04-12T13:19:22.259Z,13.50
2023-04-12T13:22:25.535Z,13.59
2023-04-12T13:25:28.343Z,13.68
2023-04-12T13:28:32.169Z,13.64
2023-04-12T13:31:34.855Z,13.62
2023-04-12T13:34:37.445Z,13.69
2023-04-12T13:37:40.215Z,13.75
2023-04-12T13:40:42.869Z,13.80
2023-04-12T13:43:45.485Z,13.86
2023-04-12T13:46:48.035Z,13.90
2023-04-12T13:49:50.666Z,13.96
2023-04-12T13:52:53.236Z,14.05
2023-04-12T13:55:56.007Z,14.18
2023-04-12T13:58:59.544Z,14.25
2023-04-12T14:02:02.891Z,14.32
2023-04-12T14:05:06.452Z,14.39
2023-04-12T14:08:09.344Z,14.52
2023-04-12T14:11:12.049Z,14.60
2023-04-12T14:14:16.573Z,14.65
2023-04-12T14:17:19.787Z,14.76
2023-04-12T14:20:23.949Z,14.78
2023-04-12T14:23:26.665Z,14.83
2023-04-12T14:26:29.660Z,14.99
2023-04-12T14:29:32.319Z,15.08
2023-04-12T14:32:35.016Z,15.09
2023-04-12T14:35:37.792Z,15.15
2023-04-12T14:38:42.070Z,15.29
2023-04-12T14:41:47.591Z,15.44
2023-04-12T14:44:50.491Z,15.59
2023-04-12T14:47:54.337Z,15.70
2023-04-12T14:50:56.982Z,15.76
2023-04-12T14:54:00.078Z,15.82
2023-04-12T14:57:04.286Z,15.85
2023-04-12T15:00:13.294Z,15.81
2023-04-12T15:03:16.608Z,15.82
2023-04-12T15:06:21.063Z,15.74
2023-04-12T15:09:24.331Z,15.72
2023-04-12T15:12:30.282Z,15.69
2023-04-12T15:15:32.916Z,15.57
2023-04-12T15:18:38.143Z,15.42
2023-04-12T15:21:40.833Z,15.27
2023-04-12T15:24:43.477Z,15.14
2023-04-12T15:27:46.200Z,15.08
2023-04-12T15:30:50.001Z,15.03
2023-04-12T15:33:52.660Z,14.93
2023-04-12T15:36:55.449Z,14.81
2023-04-12T15:39:58.058Z,14.70
2023-04-12T15:43:00.988Z,14.62
2023-04-12T15:46:03.741Z,14.54
2023-04-12T15:49:07.223Z,14.52
2023-04-12T15:52:10.668Z,14.53
2023-04-12T15:55:20.282Z,14.54
2023-04-12T15:58:24.286Z,14.50
2023-04-12T16:01:28.023Z,14.43
2023-04-12T16:04:32.025Z,14.35
2023-04-12T16:07:34.706Z,14.26
2023-04-12T16:10:39.442Z,14.18
2023-04-12T16:13:45.258Z,14.09
2023-04-12T16:16:48.368Z,13.98
2023-04-12T16:19:52.903Z,13.90
2023-04-12T16:22:55.538Z,13.84
2023-04-12T16:26:00.229Z,13.78
2023-04-12T16:29:03.701Z,13.72
2023-04-12T16:32:08.184Z,13.66
2023-04-12T16:35:11.067Z,13.65
2023-04-12T16:38:15.183Z,13.61
2023-04-12T16:41:20.560Z,13.54
2023-04-12T16:44:23.502Z,13.48
2023-04-12T16:47:26.266Z,13.43
2023-04-12T16:50:35.067Z,13.35
2023-04-12T16:53:38.746Z,13.26
2023-04-12T16:56:42.749Z,13.22
2023-04-12T16:59:46.330Z,13.16
2023-04-12T17:02:51.226Z,13.14
2023-04-12T17:05:54.074Z,13.10
2023-04-12T17:08:57.278Z,13.05
2023-04-12T17:12:00.650Z,13.02
2023-04-12T17:15:04.473Z,12.99
2023-04-12T17:18:10.238Z,12.94
2023-04-12T17:21:17.275Z,12.92
2023-04-12T17:24:20.355Z,12.90
2023-04-12T17:27:23.078Z,12.88
2023-04-12T17:30:26.569Z,12.86
2023-04-12T17:33:29.756Z,12.84
2023-04-12T17:36:32.635Z,12.83
2023-04-12T17:39:36.809Z,12.82
2023-04-12T17:42:41.344Z,12.79
2023-04-12T17:45:44.024Z,12.75
2023-04-12T17:48:47.517Z,12.73
2023-04-12T17:51:51.240Z,12.70
2023-04-12T17:54:54.388Z,12.69
2023-04-12T17:57:58.081Z,12.67
2023-04-12T18:01:01.156Z,12.65
2023-04-12T18:04:09.855Z,12.61
2023-04-12T18:07:12.979Z,12.57
2023-04-12T18:10:18.968Z,12.54
2023-04-12T18:13:24.591Z,12.50
2023-04-12T18:16:28.365Z,12.47
2023-04-12T18:19:33.051Z,12.45
2023-04-12T18:22:35.671Z,12.42
2023-04-12T18:25:38.808Z,12.39
2023-04-12T18:28:42.087Z,12.37
2023-04-12T18:31:45.589Z,12.34
2023-04-12T18:34:48.833Z,12.31
2023-04-12T18:37:52.922Z,12.29
2023-04-12T18:40:56.352Z,12.23
2023-04-12T18:44:01.449Z,12.20
2023-04-12T18:47:07.353Z,12.15
2023-04-12T18:50:11.643Z,12.12
2023-04-12T18:53:14.269Z,12.10
2023-04-12T18:56:23.427Z,12.06
2023-04-12T18:59:27.159Z,12.03
2023-04-12T19:02:29.954Z,12.00
2023-04-12T19:05:32.974Z,11.96
2023-04-12T19:08:37.541Z,11.95
2023-04-12T19:11:43.643Z,11.92
2023-04-12T19:14:48.642Z,11.90
2023-04-12T19:17:52.329Z,11.90
2023-04-12T19:20:57.468Z,11.89
2023-04-12T19:24:01.050Z,11.88
2023-04-12T19:27:04.010Z,11.88
2023-04-12T19:30:09.113Z,11.88
2023-04-12T19:33:11.861Z,11.88
2023-04-12T19:36:15.388Z,11.85
2023-04-12T19:39:20.028Z,11.83
2023-04-12T19:42:23.071Z,11.83
2023-04-12T19:45:28.982Z,11.79
2023-04-12T19:48:32.690Z,11.79
2023-04-12T19:51:36.550Z,11.77
2023-04-12T19:54:39.621Z,11.76
2023-04-12T19:57:43.200Z,11.73
2023-04-12T20:00:51.852Z,11.70
2023-04-12T20:03:54.635Z,11.67
2023-04-12T20:06:57.949Z,11.62
2023-04-12T20:10:01.141Z,11.58
2023-04-12T20:13:07.015Z,11.53
2023-04-12T20:16:10.117Z,11.48
2023-04-12T20:19:13.336Z,11.44
2023-04-12T20:22:16.468Z,11.43
2023-04-12T20:25:20.415Z,11.42
2023-04-12T20:28:25.799Z,11.40
2023-04-12T20:31:28.855Z,11.40
2023-04-12T20:34:31.601Z,11.40
2023-04-12T20:37:36.812Z,11.41
2023-04-12T20:40:39.864Z,11.41
2023-04-12T20:43:46.539Z,11.41
2023-04-12T20:46:49.702Z,11.41
2023-04-12T20:49:56.423Z,11.41
2023-04-12T20:52:59.671Z,11.39
2023-04-12T20:56:05.045Z,11.36
2023-04-12T20:59:08.177Z,11.35
2023-04-12T21:02:10.893Z,11.33
2023-04-12T21:05:17.068Z,11.30
2023-04-12T21:08:20.175Z,11.29
2023-04-12T21:11:23.480Z,11.27
2023-04-12T21:14:26.443Z,11.28
2023-04-12T21:17:30.274Z,11.25
2023-04-12T21:20:34.499Z,11.23
2023-04-12T21:23:37.126Z,11.23
2023-04-12T21:26:40.346Z,11.24
2023-04-12T21:29:44.857Z,11.24
2023-04-12T21:32:47.949Z,11.23
2023-04-12T21:35:56.777Z,11.23
2023-04-12T21:38:59.578Z,11.23
2023-04-12T21:42:03.288Z,11.21
2023-04-12T21:45:08.394Z,11.22
2023-04-12T21:48:11.234Z,11.21
2023-04-12T21:51:13.780Z,11.20
2023-04-12T21:54:16.911Z,11.19
2023-04-12T21:57:19.508Z,11.16
2023-04-12T22:00:24.906Z,11.14
2023-04-12T22:03:27.668Z,11.12
2023-04-12T22:06:30.461Z,11.13
2023-04-12T22:09:33.813Z,11.13
2023-04-12T22:12:38.625Z,11.10
2023-04-12T22:15:41.210Z,11.10
2023-04-12T22:18:47.073Z,11.10
2023-04-12T22:21:49.656Z,11.10
2023-04-12T22:24:52.781Z,11.10
2023-04-12T22:27:58.031Z,11.09
2023-04-12T22:31:00.770Z,11.09
2023-04-12T22:34:04.726Z,11.08
2023-04-12T22:37:12.024Z,11.06
2023-04-12T22:40:14.628Z,11.04
2023-04-12T22:43:20.983Z,11.02
2023-04-12T22:46:23.749Z,11.00
2023-04-12T22:49:28.484Z,11.00
2023-04-12T22:52:31.183Z,10.99
2023-04-12T22:55:36.550Z,10.99
2023-04-12T22:58:40.497Z,10.98
2023-04-12T23:01:45.286Z,10.98
2023-04-12T23:04:51.088Z,10.98
2023-04-12T23:07:53.723Z,10.98
2023-04-12T23:11:04.724Z,10.98
2023-04-12T23:14:08.927Z,10.94
2023-04-12T23:17:12.271Z,10.92
2023-04-12T23:20:14.982Z,10.90
2023-04-12T23:23:18.542Z,10.90
2023-04-12T23:26:21.295Z,10.87
2023-04-12T23:29:25.758Z,10.84
2023-04-12T23:32:28.407Z,10.84
2023-04-12T23:35:31.531Z,10.84
2023-04-12T23:38:34.744Z,10.79
2023-04-12T23:41:37.399Z,10.74
2023-04-12T23:44:40.046Z,10.75
2023-04-12T23:47:42.681Z,10.76
2023-04-12T23:50:46.550Z,10.75
2023-04-12T23:53:49.250Z,10.74
2023-04-12T23:56:52.219Z,10.74
2023-04-12T23:59:55.206Z,10.75
